createdAt,value
2022-12-25T00:01:43.995Z,86.67
2022-12-25T00:04:16.798Z,86.91
2022-12-25T00:06:49.455Z,87.34
2022-12-25T00:09:21.976Z,87.12
2022-12-25T00:11:54.627Z,86.88
2022-12-25T00:14:27.452Z,87.58
2022-12-25T00:17:00.369Z,88.16
2022-12-25T00:19:32.900Z,88.19
2022-12-25T00:22:05.424Z,87.46
2022-12-25T00:24:38.064Z,87.02
2022-12-25T00:27:10.877Z,86.79
2022-12-25T00:29:46.197Z,86.86
2022-12-25T00:32:18.842Z,86.66
2022-12-25T00:34:51.848Z,86.22
2022-12-25T00:37:24.585Z,85.92
2022-12-25T00:39:57.184Z,85.73
2022-12-25T00:42:29.681Z,85.47
2022-12-25T00:45:02.588Z,85.26
2022-12-25T00:47:35.476Z,84.88
2022-12-25T00:50:12.846Z,84.76
2022-12-25T00:52:46.212Z,85.02
2022-12-25T00:55:19.484Z,85.10
2022-12-25T00:57:51.804Z,85.17
2022-12-25T01:00:26.609Z,85.09
2022-12-25T01:03:03.299Z,84.80
2022-12-25T01:05:36.772Z,84.66
2022-12-25T01:08:09.503Z,84.63
2022-12-25T01:10:41.973Z,85.00
2022-12-25T01:13:14.319Z,84.66
2022-12-25T01:15:46.741Z,85.13
2022-12-25T01:18:19.277Z,85.53
2022-12-25T01:20:52.389Z,85.62
2022-12-25T01:23:24.829Z,86.00
2022-12-25T01:25:57.433Z,85.98
2022-12-25T01:28:34.843Z,86.37
2022-12-25T01:31:06.321Z,86.05
2022-12-25T01:33:40.790Z,85.75
2022-12-25T01:36:17.500Z,85.76
2022-12-25T01:38:51.016Z,85.22
2022-12-25T01:41:26.536Z,85.12
2022-12-25T01:44:08.585Z,84.87
2022-12-25T01:46:41.504Z,84.89
2022-12-25T01:49:17.797Z,84.70
2022-12-25T01:51:52.542Z,84.65
2022-12-25T01:54:25.202Z,84.37
2022-12-25T01:57:02.502Z,84.40
2022-12-25T01:59:35.159Z,84.41
2022-12-25T02:02:09.560Z,84.54
2022-12-25T02:04:47.919Z,84.54
2022-12-25T02:07:23.569Z,84.58
2022-12-25T02:09:56.393Z,84.70
2022-12-25T02:12:33.477Z,84.69
2022-12-25T02:15:10.739Z,84.65
2022-12-25T02:17:48.807Z,85.17
2022-12-25T02:20:48.250Z,85.49
2022-12-25T02:23:56.288Z,86.22
2022-12-25T02:27:02.612Z,86.70
2022-12-25T02:29:43.710Z,87.23
2022-12-25T02:32:25.671Z,86.80
2022-12-25T02:35:04.695Z,86.47
2022-12-25T02:37:42.069Z,86.52
2022-12-25T02:40:21.630Z,86.21
2022-12-25T02:43:16.790Z,85.88
2022-12-25T02:46:10.846Z,85.46
2022-12-25T02:49:06.969Z,85.43
2022-12-25T02:52:00.510Z,85.62
2022-12-25T02:54:56.598Z,85.56
2022-12-25T02:58:03.114Z,85.35
2022-12-25T03:00:57.760Z,85.21
2022-12-25T03:03:52.164Z,85.60
2022-12-25T03:06:46.730Z,85.99
2022-12-25T03:09:41.634Z,85.87
2022-12-25T03:12:21.435Z,86.02
2022-12-25T03:15:11.576Z,86.66
2022-12-25T03:17:44.318Z,87.35
2022-12-25T03:20:34.571Z,87.28
2022-12-25T03:23:24.411Z,86.80
2022-12-25T03:27:02.503Z,86.08
2022-12-25T03:29:53.754Z,86.04
2022-12-25T03:32:39.505Z,86.13
2022-12-25T03:35:27.680Z,85.73
2022-12-25T03:38:39.898Z,85.82
2022-12-25T03:41:38.427Z,85.87
2022-12-25T03:44:38.107Z,85.76
2022-12-25T03:47:37.020Z,85.72
2022-12-25T03:50:35.556Z,85.74
2022-12-25T03:53:29.569Z,85.66
2022-12-25T03:56:20.310Z,85.55
2022-12-25T03:59:22.820Z,85.33
2022-12-25T04:02:14.204Z,85.31
2022-12-25T04:05:04.623Z,85.16
2022-12-25T04:07:54.569Z,85.13
2022-12-25T04:10:47.543Z,85.11
2022-12-25T04:13:40.063Z,85.33
2022-12-25T04:16:32.502Z,85.76
2022-12-25T04:19:22.248Z,85.84
2022-12-25T04:22:12.103Z,85.91
2022-12-25T04:25:01.999Z,85.74
2022-12-25T04:27:52.730Z,85.76
2022-12-25T04:30:42.362Z,85.68
2022-12-25T04:33:32.581Z,85.88
2022-12-25T04:36:13.065Z,85.97
2022-12-25T04:38:45.394Z,86.35
2022-12-25T04:41:18.614Z,86.64
2022-12-25T04:43:51.028Z,86.49
2022-12-25T04:46:25.052Z,86.95
2022-12-25T04:48:57.558Z,86.78
2022-12-25T04:51:30.611Z,85.96
2022-12-25T04:54:03.204Z,85.83
2022-12-25T04:56:41.603Z,86.22
2022-12-25T04:59:18.350Z,86.27
2022-12-25T05:01:50.929Z,86.25
2022-12-25T05:04:23.638Z,86.23
2022-12-25T05:06:56.112Z,85.99
2022-12-25T05:09:29.807Z,86.07
2022-12-25T05:12:02.253Z,86.03
2022-12-25T05:14:34.471Z,86.03
2022-12-25T05:17:07.973Z,86.13
2022-12-25T05:19:40.545Z,86.90
2022-12-25T05:22:12.982Z,86.99
2022-12-25T05:24:45.379Z,87.06
2022-12-25T05:27:18.890Z,86.53
2022-12-25T05:29:51.737Z,86.30
2022-12-25T05:32:24.081Z,86.23
2022-12-25T05:34:56.392Z,86.25
2022-12-25T05:37:29.260Z,86.29
2022-12-25T05:40:01.606Z,86.48
2022-12-25T05:42:34.500Z,86.52
2022-12-25T05:45:08.245Z,86.13
2022-12-25T05:47:41.639Z,86.03
2022-12-25T05:50:14.238Z,85.99
2022-12-25T05:52:46.996Z,86.54
2022-12-25T05:55:19.540Z,87.59
2022-12-25T05:57:52.399Z,87.24
2022-12-25T06:00:25.186Z,87.72
2022-12-25T06:02:58.064Z,87.17
2022-12-25T06:05:31.032Z,86.46
2022-12-25T06:08:03.545Z,86.33
2022-12-25T06:10:35.906Z,86.41
2022-12-25T06:13:08.356Z,86.86
2022-12-25T06:15:43.148Z,86.96
2022-12-25T06:18:18.173Z,86.75
2022-12-25T06:20:51.435Z,86.18
2022-12-25T06:23:23.972Z,86.61
2022-12-25T06:25:57.093Z,86.37
2022-12-25T06:28:29.841Z,86.17
2022-12-25T06:31:06.458Z,85.96
2022-12-25T06:33:39.485Z,85.77
2022-12-25T06:36:14.576Z,85.69
2022-12-25T06:38:47.381Z,85.78
2022-12-25T06:41:21.676Z,85.47
2022-12-25T06:43:55.562Z,85.12
2022-12-25T06:46:30.731Z,85.01
2022-12-25T06:49:03.751Z,84.69
2022-12-25T06:51:36.421Z,84.61
2022-12-25T06:54:09.949Z,84.25
2022-12-25T06:56:42.342Z,84.20
2022-12-25T06:59:17.262Z,84.16
2022-12-25T07:01:51.548Z,84.24
2022-12-25T07:04:32.119Z,83.94
2022-12-25T07:07:08.982Z,84.13
2022-12-25T07:09:42.771Z,84.44
2022-12-25T07:12:20.811Z,84.36
2022-12-25T07:14:56.917Z,84.10
2022-12-25T07:17:29.362Z,83.98
2022-12-25T07:20:02.015Z,83.87
2022-12-25T07:22:34.545Z,84.04
2022-12-25T07:25:07.922Z,83.76
2022-12-25T07:27:41.268Z,83.63
2022-12-25T07:30:15.470Z,83.89
2022-12-25T07:32:50.225Z,83.77
2022-12-25T07:35:23.173Z,83.69
2022-12-25T07:37:56.294Z,83.95
2022-12-25T07:40:28.710Z,84.12
2022-12-25T07:43:01.246Z,84.22
2022-12-25T07:45:34.972Z,84.01
2022-12-25T07:48:13.348Z,83.92
2022-12-25T07:50:49.053Z,83.29
2022-12-25T07:53:21.617Z,83.06
2022-12-25T07:56:01.454Z,83.44
2022-12-25T07:58:35.030Z,83.34
2022-12-25T08:01:09.341Z,83.31
2022-12-25T08:03:41.956Z,83.15
2022-12-25T08:06:14.764Z,82.92
2022-12-25T08:08:47.803Z,83.33
2022-12-25T08:11:20.515Z,83.36
2022-12-25T08:13:52.952Z,83.42
2022-12-25T08:16:25.419Z,83.63
2022-12-25T08:18:58.529Z,83.83
2022-12-25T08:21:31.048Z,83.50
2022-12-25T08:24:03.841Z,83.29
2022-12-25T08:26:36.513Z,82.72
2022-12-25T08:29:09.158Z,82.81
2022-12-25T08:31:46.117Z,82.69
2022-12-25T08:34:19.526Z,82.65
2022-12-25T08:36:52.064Z,81.94
2022-12-25T08:39:26.054Z,81.80
2022-12-25T08:41:58.540Z,82.11
2022-12-25T08:44:31.465Z,82.14
2022-12-25T08:47:04.241Z,82.32
2022-12-25T08:49:36.650Z,82.04
2022-12-25T08:52:09.561Z,81.65
2022-12-25T08:54:42.083Z,81.54
2022-12-25T08:57:14.841Z,81.43
2022-12-25T08:59:47.276Z,81.49
2022-12-25T09:02:20.174Z,81.76
2022-12-25T09:04:52.849Z,81.59
2022-12-25T09:07:25.128Z,81.80
2022-12-25T09:09:57.594Z,81.83
2022-12-25T09:12:30.012Z,81.89
2022-12-25T09:15:02.443Z,82.11
2022-12-25T09:17:35.187Z,82.28
2022-12-25T09:20:09.791Z,82.68
2022-12-25T09:22:42.567Z,82.79
2022-12-25T09:25:18.117Z,82.78
2022-12-25T09:27:50.413Z,82.40
2022-12-25T09:30:22.869Z,82.18
2022-12-25T09:32:55.293Z,81.89
2022-12-25T09:35:28.083Z,81.80
2022-12-25T09:38:00.620Z,82.07
2022-12-25T09:40:33.998Z,82.10
2022-12-25T09:43:07.985Z,81.95
2022-12-25T09:45:42.913Z,81.82
2022-12-25T09:48:18.123Z,82.18
2022-12-25T09:50:56.589Z,82.37
2022-12-25T09:53:35.035Z,82.78
2022-12-25T09:56:12.329Z,82.62
2022-12-25T09:58:44.912Z,82.89
2022-12-25T10:01:22.800Z,82.98
2022-12-25T10:04:10.043Z,83.03
2022-12-25T10:06:55.033Z,82.86
2022-12-25T10:09:41.282Z,82.75
2022-12-25T10:12:31.170Z,82.44
2022-12-25T10:15:20.446Z,82.44
2022-12-25T10:18:10.193Z,81.93
2022-12-25T10:20:51.973Z,81.70
2022-12-25T10:23:32.049Z,82.28
2022-12-25T10:26:05.489Z,82.17
2022-12-25T10:28:44.918Z,82.07
2022-12-25T10:31:23.103Z,82.29
2022-12-25T10:33:57.799Z,82.40
2022-12-25T10:36:32.448Z,82.48
2022-12-25T10:39:05.317Z,82.30
2022-12-25T10:41:50.650Z,82.50
2022-12-25T10:44:24.306Z,82.61
2022-12-25T10:46:58.762Z,82.45
2022-12-25T10:49:34.518Z,82.45
2022-12-25T10:52:20.328Z,82.98
2022-12-25T10:54:53.386Z,82.68
2022-12-25T10:57:28.106Z,82.51
2022-12-25T11:00:05.822Z,82.67
2022-12-25T11:03:53.903Z,83.07
2022-12-25T11:06:38.529Z,82.90
2022-12-25T11:09:26.871Z,82.58
2022-12-25T11:12:11.159Z,82.56
2022-12-25T11:15:02.972Z,82.74
2022-12-25T11:17:39.949Z,82.57
2022-12-25T11:20:22.971Z,82.15
2022-12-25T11:22:56.165Z,82.21
2022-12-25T11:25:30.030Z,82.74
2022-12-25T11:28:05.434Z,82.43
2022-12-25T11:30:39.600Z,82.46
2022-12-25T11:33:15.662Z,82.72
2022-12-25T11:35:53.109Z,83.08
2022-12-25T11:38:28.551Z,83.16
2022-12-25T11:41:05.294Z,83.21
2022-12-25T11:43:43.529Z,82.74
2022-12-25T11:46:22.274Z,82.79
2022-12-25T11:48:58.895Z,82.66
2022-12-25T11:51:37.104Z,82.58
2022-12-25T11:54:20.744Z,82.48
2022-12-25T11:56:57.570Z,82.33
2022-12-25T11:59:34.397Z,82.28
2022-12-25T12:02:32.405Z,82.42
2022-12-25T12:05:16.083Z,82.57
2022-12-25T12:07:57.268Z,82.44
2022-12-25T12:10:47.605Z,82.41
2022-12-25T12:13:39.294Z,82.48
2022-12-25T12:16:13.046Z,82.29
2022-12-25T12:18:50.350Z,82.25
2022-12-25T12:21:27.340Z,82.28
2022-12-25T12:24:06.033Z,81.89
2022-12-25T12:26:41.629Z,81.85
2022-12-25T12:29:26.536Z,81.69
2022-12-25T12:32:03.538Z,81.84
2022-12-25T12:34:43.781Z,81.82
2022-12-25T12:37:27.465Z,81.68
2022-12-25T12:40:00.944Z,81.80
2022-12-25T12:42:40.369Z,81.71
2022-12-25T12:45:20.441Z,81.44
2022-12-25T12:47:54.084Z,81.44
2022-12-25T12:50:38.334Z,81.37
2022-12-25T12:53:28.223Z,81.36
2022-12-25T12:56:12.724Z,81.50
2022-12-25T12:58:50.973Z,81.63
2022-12-25T13:01:49.194Z,81.88
2022-12-25T13:04:57.395Z,81.43
2022-12-25T13:07:45.350Z,81.18
2022-12-25T13:10:26.442Z,81.26
2022-12-25T13:13:02.967Z,81.34
2022-12-25T13:15:36.984Z,81.36
2022-12-25T13:18:14.169Z,81.60
2022-12-25T13:20:55.181Z,81.58
2022-12-25T13:23:33.535Z,81.43
2022-12-25T13:26:11.806Z,81.01
2022-12-25T13:28:46.402Z,80.80
2022-12-25T13:31:22.648Z,80.90
2022-12-25T13:33:59.978Z,80.84
2022-12-25T13:36:37.558Z,80.93
2022-12-25T13:42:09.507Z,81.15
2022-12-25T13:44:47.776Z,81.23
2022-12-25T13:47:22.982Z,81.31
2022-12-25T13:49:54.636Z,81.33
2022-12-25T13:52:28.473Z,81.14
2022-12-25T13:55:00.302Z,81.33
2022-12-25T13:57:33.777Z,81.55
2022-12-25T14:00:05.956Z,81.50
2022-12-25T14:02:38.493Z,81.47
2022-12-25T14:05:26.577Z,81.50
2022-12-25T14:07:57.893Z,81.27
2022-12-25T14:11:15.873Z,81.08
2022-12-25T14:14:15.050Z,81.30
2022-12-25T14:16:48.129Z,82.03
2022-12-25T14:19:27.755Z,82.22
2022-12-25T14:26:53.471Z,81.89
2022-12-25T14:29:51.010Z,82.10
2022-12-25T14:32:26.240Z,81.82
2022-12-25T14:35:23.834Z,81.60
2022-12-25T14:37:57.213Z,81.40
2022-12-25T14:40:30.140Z,80.85
2022-12-25T14:43:01.016Z,80.78
2022-12-25T14:45:33.373Z,80.67
2022-12-25T14:48:21.204Z,80.50
2022-12-25T14:50:59.651Z,80.51
2022-12-25T14:53:36.336Z,81.06
2022-12-25T14:56:09.644Z,80.68
2022-12-25T14:58:43.480Z,80.53
2022-12-25T15:01:25.867Z,80.47
2022-12-25T15:04:21.745Z,80.61
2022-12-25T15:06:56.756Z,80.97
2022-12-25T15:09:30.285Z,81.47
2022-12-25T15:12:00.231Z,81.48
2022-12-25T15:14:31.791Z,81.43
2022-12-25T15:17:02.729Z,81.12
2022-12-25T15:19:38.654Z,81.14
2022-12-25T15:22:09.474Z,81.22
2022-12-25T15:24:42.924Z,81.57
2022-12-25T15:27:17.174Z,81.44
2022-12-25T15:32:37.875Z,81.60
2022-12-25T15:35:17.129Z,82.45
2022-12-25T15:37:46.656Z,81.92
2022-12-25T15:40:16.942Z,81.93
2022-12-25T15:42:49.120Z,81.93
2022-12-25T15:45:23.104Z,81.76
2022-12-25T15:47:52.685Z,81.94
2022-12-25T15:50:23.238Z,81.62
2022-12-25T15:52:55.023Z,81.84
2022-12-25T15:55:25.102Z,82.13
2022-12-25T15:57:54.744Z,81.91
2022-12-25T16:00:25.430Z,81.90
2022-12-25T16:02:55.210Z,81.80
2022-12-25T16:05:24.567Z,82.04
2022-12-25T16:07:54.068Z,82.00
2022-12-25T16:10:23.487Z,82.09
2022-12-25T16:12:53.506Z,82.22
2022-12-25T16:15:23.753Z,82.03
2022-12-25T16:17:53.047Z,82.17
2022-12-25T16:20:24.040Z,82.14
2022-12-25T16:22:53.144Z,81.95
2022-12-25T16:25:23.471Z,81.72
2022-12-25T16:27:54.013Z,81.77
2022-12-25T16:30:23.624Z,82.13
2022-12-25T16:43:47.595Z,81.99
2022-12-25T16:46:19.261Z,82.08
2022-12-25T16:48:49.677Z,82.01
2022-12-25T16:51:23.980Z,82.14
2022-12-25T16:54:21.097Z,82.16
2022-12-25T16:56:51.596Z,82.25
2022-12-25T16:59:23.895Z,82.17
2022-12-25T17:01:57.329Z,82.03
2022-12-25T17:04:29.373Z,82.43
2022-12-25T17:07:04.673Z,82.48
2022-12-25T17:09:37.468Z,82.46
2022-12-25T17:12:10.183Z,82.54
2022-12-25T17:14:39.417Z,82.27
2022-12-25T17:17:09.442Z,82.46
2022-12-25T17:19:40.185Z,82.59
2022-12-25T17:22:10.609Z,82.56
2022-12-25T17:24:40.968Z,82.41
2022-12-25T17:27:11.769Z,82.35
2022-12-25T17:29:43.579Z,82.36
2022-12-25T17:32:16.764Z,82.28
2022-12-25T17:34:46.755Z,82.25
2022-12-25T17:37:16.525Z,82.41
2022-12-25T17:39:47.193Z,82.32
2022-12-25T17:42:18.467Z,82.12
2022-12-25T17:44:48.449Z,82.38
2022-12-25T17:47:18.373Z,82.25
2022-12-25T17:49:48.285Z,82.54
2022-12-25T17:52:17.541Z,82.67
2022-12-25T17:54:46.630Z,82.28
2022-12-25T17:57:15.701Z,82.30
2022-12-25T17:59:44.782Z,82.13
2022-12-25T18:02:14.179Z,82.03
2022-12-25T18:04:43.483Z,81.85
2022-12-25T18:07:13.762Z,81.78
2022-12-25T18:09:43.186Z,81.87
2022-12-25T18:12:12.472Z,81.97
2022-12-25T18:14:41.618Z,81.68
2022-12-25T18:17:11.021Z,81.47
2022-12-25T18:19:40.310Z,81.57
2022-12-25T18:22:09.388Z,81.35
2022-12-25T18:24:39.100Z,81.25
2022-12-25T18:27:08.125Z,81.16
2022-12-25T18:29:37.249Z,81.11
2022-12-25T18:32:07.193Z,81.05
2022-12-25T18:34:36.542Z,81.11
2022-12-25T18:37:05.581Z,81.03
2022-12-25T18:39:34.702Z,81.10
2022-12-25T18:42:21.959Z,81.24
2022-12-25T18:44:51.095Z,81.50
2022-12-25T18:47:20.525Z,81.45
2022-12-25T18:49:50.649Z,81.52
2022-12-25T18:52:50.027Z,81.36
2022-12-25T18:55:10.836Z,81.48
2022-12-25T18:57:40.253Z,81.61
2022-12-25T19:00:11.081Z,81.68
2022-12-25T19:02:40.447Z,81.62
2022-12-25T19:05:10.010Z,81.45
2022-12-25T19:07:39.157Z,81.32
2022-12-25T19:10:09.616Z,81.37
2022-12-25T19:12:38.791Z,81.50
2022-12-25T19:15:09.558Z,81.77
2022-12-25T19:17:38.843Z,81.62
2022-12-25T19:20:10.345Z,81.59
2022-12-25T19:22:39.451Z,81.57
2022-12-25T19:25:09.779Z,81.68
2022-12-25T19:27:38.869Z,81.76
2022-12-25T19:30:10.873Z,81.74
2022-12-25T19:32:39.995Z,81.78
2022-12-25T19:35:09.620Z,81.88
2022-12-25T19:37:38.646Z,81.66
2022-12-25T19:40:09.670Z,81.73
2022-12-25T19:42:38.618Z,81.67
2022-12-25T19:45:09.592Z,82.06
2022-12-25T19:47:38.760Z,82.00
2022-12-25T19:50:09.813Z,82.02
2022-12-25T19:52:38.948Z,81.89
2022-12-25T19:55:09.541Z,82.24
2022-12-25T19:57:39.822Z,82.11
2022-12-25T20:00:11.152Z,81.81
2022-12-25T20:02:42.641Z,81.97
2022-12-25T20:05:12.210Z,81.73
2022-12-25T20:07:41.358Z,81.78
2022-12-25T20:10:10.952Z,82.11
2022-12-25T20:12:40.126Z,81.87
2022-12-25T20:15:10.957Z,81.80
2022-12-25T20:17:40.254Z,81.67
2022-12-25T20:20:11.062Z,81.87
2022-12-25T20:22:40.287Z,81.63
2022-12-25T20:25:10.616Z,81.83
2022-12-25T20:27:39.786Z,81.96
2022-12-25T20:30:10.339Z,81.77
2022-12-25T20:32:43.662Z,82.42
2022-12-25T20:35:15.759Z,82.27
2022-12-25T20:37:45.159Z,82.24
2022-12-25T20:40:14.609Z,82.53
2022-12-25T20:42:43.791Z,82.48
2022-12-25T20:45:13.142Z,82.33
2022-12-25T20:47:42.470Z,82.27
2022-12-25T20:50:11.903Z,82.12
2022-12-25T20:52:41.122Z,82.07
2022-12-25T20:55:10.342Z,82.07
2022-12-25T20:57:39.724Z,82.14
2022-12-25T21:00:11.567Z,82.13
2022-12-25T21:02:42.523Z,82.20
2022-12-25T21:05:11.979Z,82.25
2022-12-25T21:07:41.202Z,82.16
2022-12-25T21:10:11.339Z,81.98
2022-12-25T21:12:40.567Z,81.74
2022-12-25T21:15:15.461Z,81.69
2022-12-25T21:17:45.348Z,81.72
2022-12-25T21:20:14.928Z,81.53
2022-12-25T21:22:44.987Z,81.51
2022-12-25T21:25:14.603Z,81.41
2022-12-25T21:27:44.174Z,81.29
2022-12-25T21:30:15.756Z,81.41
2022-12-25T21:33:03.385Z,81.41
2022-12-25T21:35:35.470Z,81.48
2022-12-25T21:38:04.821Z,81.42
2022-12-25T21:40:36.344Z,81.40
2022-12-25T21:43:06.915Z,81.92
2022-12-25T21:45:36.670Z,82.06
2022-12-25T21:48:07.229Z,82.02
2022-12-25T21:50:55.054Z,81.96
2022-12-25T21:53:24.513Z,81.93
2022-12-25T21:55:58.576Z,81.97
2022-12-25T21:58:27.517Z,81.77
2022-12-25T22:01:01.498Z,81.67
2022-12-25T22:03:31.170Z,82.04
2022-12-25T22:06:21.614Z,82.27
2022-12-25T22:08:51.476Z,82.40
2022-12-25T22:11:39.079Z,82.65
2022-12-25T22:14:52.000Z,83.17
2022-12-25T22:17:46.544Z,83.56
2022-12-25T22:20:18.073Z,83.83
2022-12-25T22:22:47.617Z,83.86
2022-12-25T22:25:18.370Z,83.58
2022-12-25T22:27:49.121Z,83.72
2022-12-25T22:30:20.379Z,83.39
2022-12-25T22:32:51.325Z,83.75
2022-12-25T22:35:20.866Z,84.09
2022-12-25T22:37:50.007Z,84.25
2022-12-25T22:40:20.672Z,84.10
2022-12-25T22:42:52.719Z,84.09
2022-12-25T22:45:21.855Z,84.26
2022-12-25T22:47:50.996Z,84.46
2022-12-25T22:50:20.953Z,84.45
2022-12-25T22:52:50.393Z,84.39
2022-12-25T22:55:20.732Z,84.43
2022-12-25T22:57:51.506Z,84.33
2022-12-25T23:00:21.371Z,85.07
2022-12-25T23:02:50.782Z,85.41
2022-12-25T23:05:20.163Z,85.25
2022-12-25T23:07:49.588Z,85.13
2022-12-25T23:10:18.832Z,85.00
2022-12-25T23:13:05.912Z,85.83
2022-12-25T23:15:35.119Z,85.77
2022-12-25T23:18:24.394Z,85.42
2022-12-25T23:21:19.490Z,85.58
2022-12-25T23:24:06.847Z,85.40
2022-12-25T23:26:36.369Z,85.87
2022-12-25T23:29:24.326Z,86.56
2022-12-25T23:31:57.213Z,86.86
2022-12-25T23:34:27.696Z,86.78
2022-12-25T23:36:57.234Z,87.39
2022-12-25T23:39:29.333Z,87.03
2022-12-25T23:41:58.658Z,86.80
2022-12-25T23:44:29.334Z,86.49
2022-12-25T23:46:58.886Z,86.39
2022-12-25T23:49:30.443Z,86.95
2022-12-25T23:52:00.106Z,87.15
2022-12-25T23:54:33.463Z,87.31
2022-12-25T23:57:02.658Z,86.81
2022-12-25T23:59:31.929Z,86.72
